sensor_id;sensor_type;location;lat;lon;timestamp;pressure;altitude;pressure_sealevel;temperature;humidity
42415;BME280;28058;46.344;17.786;2023-02-16T00:01:15;118336.50;;;-144.97;100.00
42415;BME280;28058;46.344;17.786;2023-02-16T00:03:42;118336.50;;;-144.97;100.00
42415;BME280;28058;46.344;17.786;2023-02-16T00:06:08;118336.50;;;-144.97;100.00
42415;BME280;28058;46.344;17.786;2023-02-16T00:08:48;118336.50;;;-144.97;100.00
42415;BME280;28058;46.344;17.786;2023-02-16T00:11:33;118336.50;;;-144.97;100.00
42415;BME280;28058;46.344;17.786;2023-02-16T00:14:19;118336.50;;;-144.97;100.00
42415;BME280;28058;46.344;17.786;2023-02-16T00:16:51;118336.50;;;-144.97;100.00
42415;BME280;28058;46.344;17.786;2023-02-16T00:21:46;118336.50;;;-144.97;100.00
42415;BME280;28058;46.344;17.786;2023-02-16T00:24:13;118336.50;;;-144.97;100.00
42415;BME280;28058;46.344;17.786;2023-02-16T00:26:40;118336.50;;;-144.97;100.00
42415;BME280;28058;46.344;17.786;2023-02-16T00:29:09;118336.50;;;-144.97;100.00
42415;BME280;28058;46.344;17.786;2023-02-16T00:31:36;118336.50;;;-144.97;100.00
42415;BME280;28058;46.344;17.786;2023-02-16T00:34:17;118336.50;;;-144.97;100.00
42415;BME280;28058;46.344;17.786;2023-02-16T00:36:47;118336.50;;;-144.97;100.00
42415;BME280;28058;46.344;17.786;2023-02-16T00:39:14;118336.50;;;-144.97;100.00
42415;BME280;28058;46.344;17.786;2023-02-16T00:41:40;118336.50;;;-144.97;100.00
42415;BME280;28058;46.344;17.786;2023-02-16T00:44:22;118336.50;;;-144.97;100.00
42415;BME280;28058;46.344;17.786;2023-02-16T00:46:51;118336.50;;;-144.97;100.00
42415;BME280;28058;46.344;17.786;2023-02-16T00:49:19;118336.50;;;-144.97;100.00
42415;BME280;28058;46.344;17.786;2023-02-16T00:51:46;118336.50;;;-144.97;100.00
42415;BME280;28058;46.344;17.786;2023-02-16T00:54:13;118336.50;;;-144.97;100.00
42415;BME280;28058;46.344;17.786;2023-02-16T00:56:40;118336.50;;;-144.97;100.00
42415;BME280;28058;46.344;17.786;2023-02-16T00:59:08;118336.50;;;-144.97;100.00
42415;BME280;28058;46.344;17.786;2023-02-16T01:01:37;118336.50;;;-144.97;100.00
42415;BME280;28058;46.344;17.786;2023-02-16T01:04:05;118336.50;;;-144.97;100.00
42415;BME280;28058;46.344;17.786;2023-02-16T01:06:32;118336.50;;;-144.97;100.00
42415;BME280;28058;46.344;17.786;2023-02-16T01:09:19;118336.50;;;-144.97;100.00
42415;BME280;28058;46.344;17.786;2023-02-16T01:12:13;118336.50;;;-144.97;100.00
42415;BME280;28058;46.344;17.786;2023-02-16T01:14:40;118336.50;;;-144.97;100.00
42415;BME280;28058;46.344;17.786;2023-02-16T01:17:08;118336.50;;;-144.97;100.00
42415;BME280;28058;46.344;17.786;2023-02-16T01:19:35;118336.50;;;-144.97;100.00
42415;BME280;28058;46.344;17.786;2023-02-16T01:22:02;118336.50;;;-144.97;100.00
42415;BME280;28058;46.344;17.786;2023-02-16T01:24:28;118336.50;;;-144.97;100.00
42415;BME280;28058;46.344;17.786;2023-02-16T01:26:55;118336.50;;;-144.97;100.00
42415;BME280;28058;46.344;17.786;2023-02-16T01:29:22;118336.50;;;-144.97;100.00
42415;BME280;28058;46.344;17.786;2023-02-16T01:31:48;118336.50;;;-144.97;100.00
42415;BME280;28058;46.344;17.786;2023-02-16T01:34:16;118336.50;;;-144.97;100.00
42415;BME280;28058;46.344;17.786;2023-02-16T01:36:44;118336.50;;;-144.97;100.00
42415;BME280;28058;46.344;17.786;2023-02-16T01:39:12;118336.50;;;-144.97;100.00
42415;BME280;28058;46.344;17.786;2023-02-16T01:44:16;118336.50;;;-144.97;100.00
42415;BME280;28058;46.344;17.786;2023-02-16T01:49:17;118336.50;;;-144.97;100.00
42415;BME280;28058;46.344;17.786;2023-02-16T01:51:52;118336.50;;;-144.97;100.00
42415;BME280;28058;46.344;17.786;2023-02-16T01:54:26;118336.50;;;-144.97;100.00
42415;BME280;28058;46.344;17.786;2023-02-16T02:02:03;118336.50;;;-144.97;100.00
42415;BME280;28058;46.344;17.786;2023-02-16T02:04:39;118336.50;;;-144.97;100.00
42415;BME280;28058;46.344;17.786;2023-02-16T02:07:38;118336.50;;;-144.97;100.00
42415;BME280;28058;46.344;17.786;2023-02-16T02:10:09;118336.50;;;-144.97;100.00
42415;BME280;28058;46.344;17.786;2023-02-16T02:12:54;118336.50;;;-144.97;100.00
42415;BME280;28058;46.344;17.786;2023-02-16T02:15:25;118336.50;;;-144.97;100.00
42415;BME280;28058;46.344;17.786;2023-02-16T02:17:55;118336.50;;;-144.97;100.00
42415;BME280;28058;46.344;17.786;2023-02-16T02:20:28;118336.50;;;-144.97;100.00
42415;BME280;28058;46.344;17.786;2023-02-16T02:26:14;118336.50;;;-144.97;100.00
42415;BME280;28058;46.344;17.786;2023-02-16T02:41:27;118336.50;;;-144.97;100.00
42415;BME280;28058;46.344;17.786;2023-02-16T02:44:20;118336.50;;;-144.97;100.00
42415;BME280;28058;46.344;17.786;2023-02-16T02:46:47;118336.50;;;-144.97;100.00
42415;BME280;28058;46.344;17.786;2023-02-16T02:49:14;118336.50;;;-144.97;100.00
42415;BME280;28058;46.344;17.786;2023-02-16T02:51:41;118336.50;;;-144.97;100.00
42415;BME280;28058;46.344;17.786;2023-02-16T02:59:43;118336.50;;;-144.97;100.00
42415;BME280;28058;46.344;17.786;2023-02-16T03:02:29;118336.50;;;-144.97;100.00
42415;BME280;28058;46.344;17.786;2023-02-16T03:04:56;118336.50;;;-144.97;100.00
42415;BME280;28058;46.344;17.786;2023-02-16T03:07:23;118336.50;;;-144.97;100.00
42415;BME280;28058;46.344;17.786;2023-02-16T03:10:10;118336.50;;;-144.97;100.00
42415;BME280;28058;46.344;17.786;2023-02-16T03:12:55;118336.50;;;-144.97;100.00
42415;BME280;28058;46.344;17.786;2023-02-16T03:15:23;118336.50;;;-144.97;100.00
42415;BME280;28058;46.344;17.786;2023-02-16T03:17:51;118336.50;;;-144.97;100.00
42415;BME280;28058;46.344;17.786;2023-02-16T03:20:39;118336.50;;;-144.97;100.00
42415;BME280;28058;46.344;17.786;2023-02-16T03:23:25;118336.50;;;-144.97;100.00
42415;BME280;28058;46.344;17.786;2023-02-16T03:26:11;118336.50;;;-144.97;100.00
42415;BME280;28058;46.344;17.786;2023-02-16T03:28:57;118336.50;;;-144.97;100.00
42415;BME280;28058;46.344;17.786;2023-02-16T03:31:48;118336.50;;;-144.97;100.00
42415;BME280;28058;46.344;17.786;2023-02-16T03:34:16;118336.50;;;-144.97;100.00
42415;BME280;28058;46.344;17.786;2023-02-16T03:36:44;118336.50;;;-144.97;100.00
42415;BME280;28058;46.344;17.786;2023-02-16T03:39:12;118336.50;;;-144.97;100.00
42415;BME280;28058;46.344;17.786;2023-02-16T03:41:44;118336.50;;;-144.97;100.00
42415;BME280;28058;46.344;17.786;2023-02-16T03:44:12;118336.50;;;-144.97;100.00
42415;BME280;28058;46.344;17.786;2023-02-16T03:46:38;118336.50;;;-144.97;100.00
42415;BME280;28058;46.344;17.786;2023-02-16T03:49:05;118336.50;;;-144.97;100.00
42415;BME280;28058;46.344;17.786;2023-02-16T03:51:32;118336.50;;;-144.97;100.00
42415;BME280;28058;46.344;17.786;2023-02-16T03:53:59;118336.50;;;-144.97;100.00
42415;BME280;28058;46.344;17.786;2023-02-16T03:56:25;118336.50;;;-144.97;100.00
42415;BME280;28058;46.344;17.786;2023-02-16T03:58:52;118336.50;;;-144.97;100.00
42415;BME280;28058;46.344;17.786;2023-02-16T04:01:19;118336.50;;;-144.97;100.00
42415;BME280;28058;46.344;17.786;2023-02-16T04:03:46;118336.50;;;-144.97;100.00
42415;BME280;28058;46.344;17.786;2023-02-16T04:06:12;118336.50;;;-144.97;100.00
42415;BME280;28058;46.344;17.786;2023-02-16T04:08:39;118336.50;;;-144.97;100.00
42415;BME280;28058;46.344;17.786;2023-02-16T04:11:06;118336.50;;;-144.97;100.00
42415;BME280;28058;46.344;17.786;2023-02-16T04:13:52;118336.50;;;-144.97;100.00
42415;BME280;28058;46.344;17.786;2023-02-16T04:16:19;118336.50;;;-144.97;100.00
42415;BME280;28058;46.344;17.786;2023-02-16T04:18:46;118336.50;;;-144.97;100.00
42415;BME280;28058;46.344;17.786;2023-02-16T04:21:13;118336.50;;;-144.97;100.00
42415;BME280;28058;46.344;17.786;2023-02-16T04:23:39;118336.50;;;-144.97;100.00
42415;BME280;28058;46.344;17.786;2023-02-16T04:26:06;118336.50;;;-144.97;100.00
42415;BME280;28058;46.344;17.786;2023-02-16T04:28:33;118336.50;;;-144.97;100.00
42415;BME280;28058;46.344;17.786;2023-02-16T04:30:59;118336.50;;;-144.97;100.00
42415;BME280;28058;46.344;17.786;2023-02-16T04:33:26;118336.50;;;-144.97;100.00
42415;BME280;28058;46.344;17.786;2023-02-16T04:35:53;118336.50;;;-144.97;100.00
42415;BME280;28058;46.344;17.786;2023-02-16T04:38:20;118336.50;;;-144.97;100.00
42415;BME280;28058;46.344;17.786;2023-02-16T04:40:46;118336.50;;;-144.97;100.00
42415;BME280;28058;46.344;17.786;2023-02-16T04:43:13;118336.50;;;-144.97;100.00
42415;BME280;28058;46.344;17.786;2023-02-16T04:45:40;118336.50;;;-144.97;100.00
42415;BME280;28058;46.344;17.786;2023-02-16T04:48:06;118336.50;;;-144.97;100.00
42415;BME280;28058;46.344;17.786;2023-02-16T04:50:33;118336.50;;;-144.97;100.00
42415;BME280;28058;46.344;17.786;2023-02-16T04:53:00;118336.50;;;-144.97;100.00
42415;BME280;28058;46.344;17.786;2023-02-16T04:55:26;118336.50;;;-144.97;100.00
42415;BME280;28058;46.344;17.786;2023-02-16T04:57:53;118336.50;;;-144.97;100.00
42415;BME280;28058;46.344;17.786;2023-02-16T05:00:20;118336.50;;;-144.97;100.00
42415;BME280;28058;46.344;17.786;2023-02-16T05:02:47;118336.50;;;-144.97;100.00
42415;BME280;28058;46.344;17.786;2023-02-16T05:05:13;118336.50;;;-144.97;100.00
42415;BME280;28058;46.344;17.786;2023-02-16T05:07:40;118336.50;;;-144.97;100.00
42415;BME280;28058;46.344;17.786;2023-02-16T05:10:07;118336.50;;;-144.97;100.00
42415;BME280;28058;46.344;17.786;2023-02-16T05:12:34;118336.50;;;-144.97;100.00
42415;BME280;28058;46.344;17.786;2023-02-16T05:15:19;118336.50;;;-144.97;100.00
42415;BME280;28058;46.344;17.786;2023-02-16T05:17:46;118336.50;;;-144.97;100.00
42415;BME280;28058;46.344;17.786;2023-02-16T05:20:13;118336.50;;;-144.97;100.00
42415;BME280;28058;46.344;17.786;2023-02-16T05:22:40;118336.50;;;-144.97;100.00
42415;BME280;28058;46.344;17.786;2023-02-16T05:25:08;118336.50;;;-144.97;100.00
42415;BME280;28058;46.344;17.786;2023-02-16T05:27:35;118336.50;;;-144.97;100.00
42415;BME280;28058;46.344;17.786;2023-02-16T05:30:02;118336.50;;;-144.97;100.00
42415;BME280;28058;46.344;17.786;2023-02-16T05:32:29;118336.50;;;-144.97;100.00
42415;BME280;28058;46.344;17.786;2023-02-16T05:34:56;118336.50;;;-144.97;100.00
42415;BME280;28058;46.344;17.786;2023-02-16T05:37:22;118336.50;;;-144.97;100.00
42415;BME280;28058;46.344;17.786;2023-02-16T05:39:49;118336.50;;;-144.97;100.00
42415;BME280;28058;46.344;17.786;2023-02-16T05:42:18;118336.50;;;-144.97;100.00
42415;BME280;28058;46.344;17.786;2023-02-16T05:44:44;118336.50;;;-144.97;100.00
42415;BME280;28058;46.344;17.786;2023-02-16T05:47:11;118336.50;;;-144.97;100.00
42415;BME280;28058;46.344;17.786;2023-02-16T05:49:38;118336.50;;;-144.97;100.00
42415;BME280;28058;46.344;17.786;2023-02-16T05:52:04;118336.50;;;-144.97;100.00
42415;BME280;28058;46.344;17.786;2023-02-16T05:54:31;118336.50;;;-144.97;100.00
42415;BME280;28058;46.344;17.786;2023-02-16T05:56:58;118336.50;;;-144.97;100.00
42415;BME280;28058;46.344;17.786;2023-02-16T05:59:24;118336.50;;;-144.97;100.00
42415;BME280;28058;46.344;17.786;2023-02-16T06:01:51;118336.50;;;-144.97;100.00
42415;BME280;28058;46.344;17.786;2023-02-16T06:04:18;118336.50;;;-144.97;100.00
42415;BME280;28058;46.344;17.786;2023-02-16T06:06:45;118336.50;;;-144.97;100.00
42415;BME280;28058;46.344;17.786;2023-02-16T06:09:12;118336.50;;;-144.97;100.00
42415;BME280;28058;46.344;17.786;2023-02-16T06:11:39;118336.50;;;-144.97;100.00
42415;BME280;28058;46.344;17.786;2023-02-16T06:16:33;118336.50;;;-144.97;100.00
42415;BME280;28058;46.344;17.786;2023-02-16T06:19:00;118336.50;;;-144.97;100.00
42415;BME280;28058;46.344;17.786;2023-02-16T06:21:26;118336.50;;;-144.97;100.00
42415;BME280;28058;46.344;17.786;2023-02-16T06:23:54;118336.50;;;-144.97;100.00
42415;BME280;28058;46.344;17.786;2023-02-16T06:26:20;118336.50;;;-144.97;100.00
42415;BME280;28058;46.344;17.786;2023-02-16T06:28:47;118336.50;;;-144.97;100.00
42415;BME280;28058;46.344;17.786;2023-02-16T06:31:14;118336.50;;;-144.97;100.00
42415;BME280;28058;46.344;17.786;2023-02-16T06:33:41;118336.50;;;-144.97;100.00
42415;BME280;28058;46.344;17.786;2023-02-16T06:36:08;118336.50;;;-144.97;100.00
42415;BME280;28058;46.344;17.786;2023-02-16T06:38:35;118336.50;;;-144.97;100.00
42415;BME280;28058;46.344;17.786;2023-02-16T06:41:02;118336.50;;;-144.97;100.00
42415;BME280;28058;46.344;17.786;2023-02-16T06:43:29;118336.50;;;-144.97;100.00
42415;BME280;28058;46.344;17.786;2023-02-16T06:45:56;118336.50;;;-144.97;100.00
42415;BME280;28058;46.344;17.786;2023-02-16T06:48:23;118336.50;;;-144.97;100.00
42415;BME280;28058;46.344;17.786;2023-02-16T06:50:50;118336.50;;;-144.97;100.00
42415;BME280;28058;46.344;17.786;2023-02-16T06:53:17;118336.50;;;-144.97;100.00
42415;BME280;28058;46.344;17.786;2023-02-16T06:55:44;118336.50;;;-144.97;100.00
42415;BME280;28058;46.344;17.786;2023-02-16T06:58:10;118336.50;;;-144.97;100.00
42415;BME280;28058;46.344;17.786;2023-02-16T07:00:37;118336.50;;;-144.97;100.00
42415;BME280;28058;46.344;17.786;2023-02-16T07:03:04;118336.50;;;-144.97;100.00
42415;BME280;28058;46.344;17.786;2023-02-16T07:05:31;118336.50;;;-144.97;100.00
42415;BME280;28058;46.344;17.786;2023-02-16T07:07:57;118336.50;;;-144.97;100.00
42415;BME280;28058;46.344;17.786;2023-02-16T07:10:24;118336.50;;;-144.97;100.00
42415;BME280;28058;46.344;17.786;2023-02-16T07:12:51;118336.50;;;-144.97;100.00
42415;BME280;28058;46.344;17.786;2023-02-16T07:15:17;118336.50;;;-144.97;100.00
42415;BME280;28058;46.344;17.786;2023-02-16T07:17:44;118336.50;;;-144.97;100.00
42415;BME280;28058;46.344;17.786;2023-02-16T07:20:11;118336.50;;;-144.97;100.00
42415;BME280;28058;46.344;17.786;2023-02-16T07:22:38;118336.50;;;-144.97;100.00
42415;BME280;28058;46.344;17.786;2023-02-16T07:25:05;118336.50;;;-144.97;100.00
42415;BME280;28058;46.344;17.786;2023-02-16T07:27:32;118336.50;;;-144.97;100.00
42415;BME280;28058;46.344;17.786;2023-02-16T07:29:59;118336.50;;;-144.97;100.00
42415;BME280;28058;46.344;17.786;2023-02-16T07:32:27;118336.50;;;-144.97;100.00
42415;BME280;28058;46.344;17.786;2023-02-16T07:34:54;118336.50;;;-144.97;100.00
42415;BME280;28058;46.344;17.786;2023-02-16T07:37:20;118336.50;;;-144.97;100.00
42415;BME280;28058;46.344;17.786;2023-02-16T07:39:47;118336.50;;;-144.97;100.00
42415;BME280;28058;46.344;17.786;2023-02-16T07:42:14;118336.50;;;-144.97;100.00
42415;BME280;28058;46.344;17.786;2023-02-16T07:44:40;118336.50;;;-144.97;100.00
42415;BME280;28058;46.344;17.786;2023-02-16T07:47:07;118336.50;;;-144.97;100.00
42415;BME280;28058;46.344;17.786;2023-02-16T07:49:34;118336.50;;;-144.97;100.00
42415;BME280;28058;46.344;17.786;2023-02-16T07:52:00;118336.50;;;-144.97;100.00
42415;BME280;28058;46.344;17.786;2023-02-16T07:54:27;118336.50;;;-144.97;100.00
42415;BME280;28058;46.344;17.786;2023-02-16T07:56:54;118336.50;;;-144.97;100.00
42415;BME280;28058;46.344;17.786;2023-02-16T07:59:21;118336.50;;;-144.97;100.00
42415;BME280;28058;46.344;17.786;2023-02-16T08:01:47;118336.50;;;-144.97;99.47
42415;BME280;28058;46.344;17.786;2023-02-16T08:04:14;118336.50;;;-144.97;95.20
42415;BME280;28058;46.344;17.786;2023-02-16T08:06:41;118336.50;;;-144.97;81.59
42415;BME280;28058;46.344;17.786;2023-02-16T08:09:08;118336.50;;;-144.97;74.45
42415;BME280;28058;46.344;17.786;2023-02-16T08:11:34;118336.50;;;-144.97;76.41
42415;BME280;28058;46.344;17.786;2023-02-16T08:14:01;118336.50;;;-144.97;70.40
42415;BME280;28058;46.344;17.786;2023-02-16T08:16:28;118336.50;;;-144.97;77.40
42415;BME280;28058;46.344;17.786;2023-02-16T08:18:55;118336.50;;;-144.97;65.65
42415;BME280;28058;46.344;17.786;2023-02-16T08:21:23;118336.50;;;-144.97;61.05
42415;BME280;28058;46.344;17.786;2023-02-16T08:23:54;118336.50;;;-144.97;60.21
42415;BME280;28058;46.344;17.786;2023-02-16T08:26:23;118336.50;;;-144.97;59.49
42415;BME280;28058;46.344;17.786;2023-02-16T08:28:50;118336.50;;;-144.97;57.47
42415;BME280;28058;46.344;17.786;2023-02-16T08:31:19;118336.50;;;-144.97;52.25
42415;BME280;28058;46.344;17.786;2023-02-16T08:33:46;118336.50;;;-144.97;54.14
42415;BME280;28058;46.344;17.786;2023-02-16T08:36:17;118336.50;;;-144.97;54.43
42415;BME280;28058;46.344;17.786;2023-02-16T08:38:45;118336.50;;;-144.97;59.29
42415;BME280;28058;46.344;17.786;2023-02-16T08:41:11;118336.50;;;-144.97;68.24
42415;BME280;28058;46.344;17.786;2023-02-16T08:43:38;118336.50;;;-144.97;61.59
42415;BME280;28058;46.344;17.786;2023-02-16T08:46:05;118336.50;;;-144.97;70.43
42415;BME280;28058;46.344;17.786;2023-02-16T08:48:33;118336.50;;;-144.97;72.80
42415;BME280;28058;46.344;17.786;2023-02-16T08:51:01;118336.50;;;-144.97;73.42
42415;BME280;28058;46.344;17.786;2023-02-16T08:53:28;118336.50;;;-144.97;72.75
42415;BME280;28058;46.344;17.786;2023-02-16T08:55:59;118336.50;;;-144.97;73.92
42415;BME280;28058;46.344;17.786;2023-02-16T08:58:26;118336.50;;;-144.97;72.29
42415;BME280;28058;46.344;17.786;2023-02-16T09:00:52;118336.50;;;-144.97;75.33
42415;BME280;28058;46.344;17.786;2023-02-16T09:03:19;118336.50;;;-144.97;72.63
42415;BME280;28058;46.344;17.786;2023-02-16T09:05:49;118336.50;;;-144.97;72.13
42415;BME280;28058;46.344;17.786;2023-02-16T09:08:17;118336.50;;;-144.97;68.42
42415;BME280;28058;46.344;17.786;2023-02-16T09:10:44;118336.50;;;-144.97;70.32
42415;BME280;28058;46.344;17.786;2023-02-16T09:13:11;118336.50;;;-144.97;60.61
42415;BME280;28058;46.344;17.786;2023-02-16T09:15:41;118336.50;;;-144.97;60.11
42415;BME280;28058;46.344;17.786;2023-02-16T09:18:09;118336.50;;;-144.97;58.32
42415;BME280;28058;46.344;17.786;2023-02-16T09:20:39;118336.50;;;-144.97;54.29
42415;BME280;28058;46.344;17.786;2023-02-16T09:23:07;118336.50;;;-144.97;54.56
42415;BME280;28058;46.344;17.786;2023-02-16T09:25:36;118336.50;;;-144.97;60.68
42415;BME280;28058;46.344;17.786;2023-02-16T09:28:04;118336.50;;;-144.97;66.46
42415;BME280;28058;46.344;17.786;2023-02-16T09:30:31;118336.50;;;-144.97;72.79
42415;BME280;28058;46.344;17.786;2023-02-16T09:32:58;118336.50;;;-144.97;75.33
42415;BME280;28058;46.344;17.786;2023-02-16T09:35:25;118336.50;;;-144.97;77.74
42415;BME280;28058;46.344;17.786;2023-02-16T09:37:52;118336.50;;;-144.97;82.31
42415;BME280;28058;46.344;17.786;2023-02-16T09:40:19;118336.50;;;-144.97;88.55
42415;BME280;28058;46.344;17.786;2023-02-16T09:45:14;118336.50;;;-144.97;93.87
42415;BME280;28058;46.344;17.786;2023-02-16T09:47:42;118336.50;;;-144.97;93.83
42415;BME280;28058;46.344;17.786;2023-02-16T09:50:18;118336.50;;;-144.97;95.14
42415;BME280;28058;46.344;17.786;2023-02-16T09:53:06;118336.50;;;-144.97;96.84
42415;BME280;28058;46.344;17.786;2023-02-16T09:55:41;118336.50;;;-144.97;97.33
42415;BME280;28058;46.344;17.786;2023-02-16T09:58:16;118336.50;;;-144.97;96.66
42415;BME280;28058;46.344;17.786;2023-02-16T10:00:48;118336.50;;;-144.97;96.38
42415;BME280;28058;46.344;17.786;2023-02-16T10:08:38;118336.50;;;-144.97;95.70
42415;BME280;28058;46.344;17.786;2023-02-16T10:11:16;118336.50;;;-144.97;96.41
42415;BME280;28058;46.344;17.786;2023-02-16T10:14:05;118336.50;;;-144.97;95.58
42415;BME280;28058;46.344;17.786;2023-02-16T10:16:39;118336.50;;;-144.97;95.33
42415;BME280;28058;46.344;17.786;2023-02-16T10:19:19;118336.50;;;-144.97;95.86
42415;BME280;28058;46.344;17.786;2023-02-16T10:21:50;118336.50;;;-144.97;97.51
42415;BME280;28058;46.344;17.786;2023-02-16T10:24:19;118336.50;;;-144.97;97.64
42415;BME280;28058;46.344;17.786;2023-02-16T10:27:08;118336.50;;;-144.97;97.30
42415;BME280;28058;46.344;17.786;2023-02-16T10:29:36;118336.50;;;-144.97;95.71
42415;BME280;28058;46.344;17.786;2023-02-16T10:32:14;118336.50;;;-144.97;94.01
42415;BME280;28058;46.344;17.786;2023-02-16T10:34:47;118336.50;;;-144.97;94.55
42415;BME280;28058;46.344;17.786;2023-02-16T10:37:20;118336.50;;;-144.97;93.32
42415;BME280;28058;46.344;17.786;2023-02-16T10:43:15;118336.50;;;-144.97;89.99
42415;BME280;28058;46.344;17.786;2023-02-16T10:45:51;118336.50;;;-144.97;87.80
42415;BME280;28058;46.344;17.786;2023-02-16T10:48:21;118336.50;;;-144.97;87.89
42415;BME280;28058;46.344;17.786;2023-02-16T10:51:00;118336.50;;;-144.97;86.34
42415;BME280;28058;46.344;17.786;2023-02-16T10:55:54;118336.50;;;-144.97;84.57
42415;BME280;28058;46.344;17.786;2023-02-16T10:58:27;118336.50;;;-144.97;84.00
42415;BME280;28058;46.344;17.786;2023-02-16T11:00:59;118336.50;;;-144.97;85.89
42415;BME280;28058;46.344;17.786;2023-02-16T11:03:30;118336.50;;;-144.97;79.48
42415;BME280;28058;46.344;17.786;2023-02-16T11:06:11;118336.50;;;-144.97;78.16
42415;BME280;28058;46.344;17.786;2023-02-16T11:08:48;118336.50;;;-144.97;78.32
42415;BME280;28058;46.344;17.786;2023-02-16T11:11:15;118336.50;;;-144.97;78.76
42415;BME280;28058;46.344;17.786;2023-02-16T11:13:45;118336.50;;;-144.97;79.22
42415;BME280;28058;46.344;17.786;2023-02-16T11:16:17;118336.50;;;-144.97;78.49
42415;BME280;28058;46.344;17.786;2023-02-16T11:18:45;118336.50;;;-144.97;76.48
42415;BME280;28058;46.344;17.786;2023-02-16T11:21:14;118336.50;;;-144.97;74.95
42415;BME280;28058;46.344;17.786;2023-02-16T11:23:42;118336.50;;;-144.97;75.11
42415;BME280;28058;46.344;17.786;2023-02-16T11:34:14;118336.50;;;-144.97;75.61
42415;BME280;28058;46.344;17.786;2023-02-16T11:36:40;118336.50;;;-144.97;78.69
42415;BME280;28058;46.344;17.786;2023-02-16T11:39:14;118336.50;;;-144.97;76.42
42415;BME280;28058;46.344;17.786;2023-02-16T11:41:43;118336.50;;;-144.97;77.29
42415;BME280;28058;46.344;17.786;2023-02-16T11:44:25;118336.50;;;-144.97;75.84
42415;BME280;28058;46.344;17.786;2023-02-16T11:46:53;118336.50;;;-144.97;75.59
42415;BME280;28058;46.344;17.786;2023-02-16T11:51:55;118336.50;;;-144.97;76.89
42415;BME280;28058;46.344;17.786;2023-02-16T11:54:22;118336.50;;;-144.97;72.99
42415;BME280;28058;46.344;17.786;2023-02-16T11:57:10;118336.50;;;-144.97;72.75
42415;BME280;28058;46.344;17.786;2023-02-16T11:59:40;118336.50;;;-144.97;68.84
42415;BME280;28058;46.344;17.786;2023-02-16T12:10:50;118336.50;;;-144.97;70.68
42415;BME280;28058;46.344;17.786;2023-02-16T12:18:06;118336.50;;;-144.97;72.49
42415;BME280;28058;46.344;17.786;2023-02-16T12:20:44;118336.50;;;-144.97;73.39
42415;BME280;28058;46.344;17.786;2023-02-16T12:25:46;118336.50;;;-144.97;67.59
42415;BME280;28058;46.344;17.786;2023-02-16T12:28:36;118336.50;;;-144.97;66.96
42415;BME280;28058;46.344;17.786;2023-02-16T12:33:50;118336.50;;;-144.97;67.05
42415;BME280;28058;46.344;17.786;2023-02-16T12:36:31;118336.50;;;-144.97;67.27
42415;BME280;28058;46.344;17.786;2023-02-16T12:43:58;118336.50;;;-144.97;64.75
42415;BME280;28058;46.344;17.786;2023-02-16T12:48:57;118336.50;;;-144.97;67.54
42415;BME280;28058;46.344;17.786;2023-02-16T12:51:26;118336.50;;;-144.97;67.32
42415;BME280;28058;46.344;17.786;2023-02-16T12:56:38;118336.50;;;-144.97;68.94
42415;BME280;28058;46.344;17.786;2023-02-16T12:59:21;118336.50;;;-144.97;68.64
42415;BME280;28058;46.344;17.786;2023-02-16T13:01:50;118336.50;;;-144.97;68.30
42415;BME280;28058;46.344;17.786;2023-02-16T13:04:26;118336.50;;;-144.97;68.09
42415;BME280;28058;46.344;17.786;2023-02-16T13:07:01;118336.50;;;-144.97;69.21
42415;BME280;28058;46.344;17.786;2023-02-16T13:14:45;118336.50;;;-144.97;68.30
42415;BME280;28058;46.344;17.786;2023-02-16T13:17:20;118336.50;;;-144.97;68.10
42415;BME280;28058;46.344;17.786;2023-02-16T13:19:50;118336.50;;;-144.97;66.31
42415;BME280;28058;46.344;17.786;2023-02-16T13:37:50;118336.50;;;-144.97;67.80
42415;BME280;28058;46.344;17.786;2023-02-16T13:45:43;118336.50;;;-144.97;69.00
42415;BME280;28058;46.344;17.786;2023-02-16T13:48:27;118336.50;;;-144.97;68.38
42415;BME280;28058;46.344;17.786;2023-02-16T13:50:57;118336.50;;;-144.97;68.07
42415;BME280;28058;46.344;17.786;2023-02-16T13:53:33;118336.50;;;-144.97;67.37
42415;BME280;28058;46.344;17.786;2023-02-16T13:58:40;118336.50;;;-144.97;65.82
42415;BME280;28058;46.344;17.786;2023-02-16T14:03:52;118336.50;;;-144.97;68.14
42415;BME280;28058;46.344;17.786;2023-02-16T14:22:36;118336.50;;;-144.97;69.83
42415;BME280;28058;46.344;17.786;2023-02-16T14:25:06;118336.50;;;-144.97;68.98
42415;BME280;28058;46.344;17.786;2023-02-16T14:30:55;118336.50;;;-144.97;68.24
42415;BME280;28058;46.344;17.786;2023-02-16T14:40:56;118336.50;;;-144.97;68.62
42415;BME280;28058;46.344;17.786;2023-02-16T14:43:30;118336.50;;;-144.97;68.51
42415;BME280;28058;46.344;17.786;2023-02-16T14:51:15;118336.50;;;-144.97;75.09
42415;BME280;28058;46.344;17.786;2023-02-16T15:01:17;118336.50;;;-144.97;71.25
42415;BME280;28058;46.344;17.786;2023-02-16T15:03:46;118336.50;;;-144.97;72.26
42415;BME280;28058;46.344;17.786;2023-02-16T15:06:18;118336.50;;;-144.97;73.56
42415;BME280;28058;46.344;17.786;2023-02-16T15:08:48;118336.50;;;-144.97;73.25
42415;BME280;28058;46.344;17.786;2023-02-16T15:11:21;118336.50;;;-144.97;75.50